createdAt,value
2019-01-09T00:00:57.781Z,3.60
2019-01-09T00:03:25.222Z,3.60
2019-01-09T00:05:56.245Z,3.60
2019-01-09T00:08:30.397Z,3.60
2019-01-09T00:11:03.685Z,3.60
2019-01-09T00:13:38.197Z,3.70
2019-01-09T00:16:08.393Z,3.70
2019-01-09T00:19:05.173Z,3.70
2019-01-09T00:21:51.632Z,3.70
2019-01-09T00:24:24.437Z,3.70
2019-01-09T00:27:01.878Z,3.70
2019-01-09T00:30:22.786Z,3.70
2019-01-09T00:32:59.309Z,3.70
2019-01-09T00:35:37.308Z,3.70
2019-01-09T00:38:02.361Z,3.70
2019-01-09T00:40:34.938Z,3.70
2019-01-09T00:43:07.109Z,3.70
2019-01-09T00:45:38.277Z,3.70
2019-01-09T00:48:27.452Z,3.70
2019-01-09T00:50:58.829Z,3.70
2019-01-09T00:53:29.475Z,3.70
2019-01-09T00:56:02.743Z,3.70
2019-01-09T00:58:33.036Z,3.70
2019-01-09T01:01:07.280Z,3.60
2019-01-09T01:04:09.591Z,3.70
2019-01-09T01:07:23.084Z,3.60
2019-01-09T01:10:27.268Z,3.70
2019-01-09T01:13:32.118Z,3.70
2019-01-09T01:16:59.007Z,3.70
2019-01-09T01:20:06.328Z,3.70
2019-01-09T01:23:11.333Z,3.70
2019-01-09T01:26:00.755Z,3.70
2019-01-09T01:29:13.978Z,3.60
2019-01-09T01:32:28.045Z,3.60
2019-01-09T01:35:23.631Z,3.60
2019-01-09T01:38:51.502Z,3.60
2019-01-09T01:41:45.172Z,3.60
2019-01-09T01:44:44.856Z,3.60
2019-01-09T01:48:05.330Z,3.60
2019-01-09T01:51:02.475Z,3.60
2019-01-09T01:53:40.094Z,3.60
2019-01-09T01:56:43.330Z,3.60
2019-01-09T01:59:47.854Z,3.50
2019-01-09T02:02:35.698Z,3.50
2019-01-09T02:05:40.221Z,3.50
2019-01-09T02:08:42.390Z,3.50
2019-01-09T02:11:41.299Z,3.50
2019-01-09T02:14:40.229Z,3.50
2019-01-09T02:17:59.391Z,3.50
2019-01-09T02:21:16.952Z,3.50
2019-01-09T02:24:16.884Z,3.40
2019-01-09T02:26:57.519Z,3.50
2019-01-09T02:29:55.304Z,3.50
2019-01-09T02:32:37.119Z,3.50
2019-01-09T02:35:08.759Z,3.50
2019-01-09T02:37:40.719Z,3.50
2019-01-09T02:40:11.181Z,3.50
2019-01-09T02:42:41.600Z,3.50
2019-01-09T02:45:13.266Z,3.50
2019-01-09T02:47:47.834Z,3.50
2019-01-09T02:50:18.218Z,3.40
2019-01-09T02:53:00.119Z,3.40
2019-01-09T02:55:33.126Z,3.40
2019-01-09T02:58:07.382Z,3.40
2019-01-09T03:00:44.900Z,3.40
2019-01-09T03:03:15.975Z,3.40
2019-01-09T03:05:46.427Z,3.40
2019-01-09T03:08:17.143Z,3.40
2019-01-09T03:10:52.028Z,3.40
2019-01-09T03:13:23.012Z,3.40
2019-01-09T03:15:53.187Z,3.40
2019-01-09T03:18:31.219Z,3.40
2019-01-09T03:21:06.075Z,3.40
2019-01-09T03:23:37.301Z,3.40
2019-01-09T03:26:09.895Z,3.40
2019-01-09T03:28:40.521Z,3.40
2019-01-09T03:31:23.695Z,3.40
2019-01-09T03:33:56.472Z,3.40
2019-01-09T03:36:33.027Z,3.40
2019-01-09T03:39:08.339Z,3.40
2019-01-09T03:41:46.855Z,3.40
2019-01-09T03:44:17.192Z,3.30
2019-01-09T03:46:48.589Z,3.30
2019-01-09T03:49:19.237Z,3.30
2019-01-09T03:51:52.624Z,3.30
2019-01-09T03:54:25.098Z,3.40
2019-01-09T03:56:55.650Z,3.40
2019-01-09T03:59:35.938Z,3.40
2019-01-09T04:02:06.436Z,3.40
2019-01-09T04:04:37.102Z,3.40
2019-01-09T04:07:07.790Z,3.40
2019-01-09T04:09:51.689Z,3.50
2019-01-09T04:12:32.362Z,3.50
2019-01-09T04:15:05.042Z,3.50
2019-01-09T04:17:36.576Z,3.50
2019-01-09T04:20:06.809Z,3.40
2019-01-09T04:22:37.095Z,3.50
2019-01-09T04:25:08.162Z,3.50
2019-01-09T04:27:47.070Z,3.50
2019-01-09T04:30:17.588Z,3.50
2019-01-09T04:32:49.629Z,3.50
2019-01-09T04:35:20.694Z,3.50
2019-01-09T04:38:02.010Z,3.50
2019-01-09T04:40:32.600Z,3.50
2019-01-09T04:43:03.233Z,3.50
2019-01-09T04:45:35.732Z,3.50
2019-01-09T04:48:10.236Z,3.50
2019-01-09T04:50:41.434Z,3.50
2019-01-09T04:53:12.174Z,3.50
2019-01-09T04:55:49.084Z,3.50
2019-01-09T04:58:23.363Z,3.40
2019-01-09T05:00:56.242Z,3.40
2019-01-09T05:03:26.918Z,3.40
2019-01-09T05:06:04.046Z,3.40
2019-01-09T05:08:58.231Z,3.40
2019-01-09T05:11:28.821Z,3.40
2019-01-09T05:14:26.004Z,3.40
2019-01-09T05:16:59.738Z,3.40
2019-01-09T05:19:59.042Z,3.40
2019-01-09T05:22:50.914Z,3.40
2019-01-09T05:25:22.928Z,3.40
2019-01-09T05:27:56.306Z,3.40
2019-01-09T05:31:18.138Z,3.40
2019-01-09T05:33:49.548Z,3.40
2019-01-09T05:36:20.439Z,3.40
2019-01-09T05:38:51.117Z,3.40
2019-01-09T05:41:21.755Z,3.30
2019-01-09T05:43:53.380Z,3.30
2019-01-09T05:46:53.940Z,3.30
2019-01-09T05:49:24.083Z,3.30
2019-01-09T05:51:55.432Z,3.30
2019-01-09T05:54:26.095Z,3.30
2019-01-09T05:56:56.373Z,3.30
2019-01-09T05:59:27.369Z,3.30
2019-01-09T06:01:57.927Z,3.30
2019-01-09T06:04:28.514Z,3.20
2019-01-09T06:07:01.135Z,3.20
2019-01-09T06:09:31.808Z,3.20
2019-01-09T06:12:02.483Z,3.20
2019-01-09T06:14:38.095Z,3.20
2019-01-09T06:17:39.764Z,3.20
2019-01-09T06:20:20.982Z,3.10
2019-01-09T06:22:53.505Z,3.00
2019-01-09T06:25:23.878Z,3.10
2019-01-09T06:27:54.775Z,3.00
2019-01-09T06:30:28.535Z,3.10
2019-01-09T06:32:59.179Z,3.10
2019-01-09T06:35:42.455Z,3.10
2019-01-09T06:38:12.732Z,3.10
2019-01-09T06:40:48.029Z,3.10
2019-01-09T06:43:18.188Z,3.10
2019-01-09T06:45:49.000Z,3.00
2019-01-09T06:48:19.416Z,2.90
2019-01-09T06:50:52.190Z,2.90
2019-01-09T06:53:22.901Z,2.90
2019-01-09T06:55:53.354Z,2.90
2019-01-09T06:58:24.972Z,3.00
2019-01-09T07:00:58.669Z,3.00
2019-01-09T07:03:29.347Z,3.00
2019-01-09T07:06:00.159Z,3.00
2019-01-09T07:08:30.709Z,3.10
2019-01-09T07:11:01.452Z,3.10
2019-01-09T07:13:31.884Z,3.10
2019-01-09T07:16:02.087Z,3.20
2019-01-09T07:18:35.501Z,3.20
2019-01-09T07:21:06.779Z,3.20
2019-01-09T07:23:38.733Z,3.20
2019-01-09T07:26:09.966Z,3.30
2019-01-09T07:28:41.828Z,3.30
2019-01-09T07:31:17.163Z,3.30
2019-01-09T07:33:47.469Z,3.30
2019-01-09T07:36:36.054Z,3.30
2019-01-09T07:39:17.983Z,3.30
2019-01-09T07:41:51.049Z,3.30
2019-01-09T07:44:21.534Z,3.40
2019-01-09T07:47:05.568Z,3.40
2019-01-09T07:49:36.148Z,3.40
2019-01-09T07:52:07.530Z,3.40
2019-01-09T07:54:39.240Z,3.40
2019-01-09T07:57:21.482Z,3.40
2019-01-09T07:59:52.093Z,3.40
2019-01-09T08:02:22.410Z,3.30
2019-01-09T08:05:04.990Z,3.30
2019-01-09T08:07:53.823Z,3.40
2019-01-09T08:10:23.403Z,3.30
2019-01-09T08:12:54.016Z,3.40
2019-01-09T08:15:26.020Z,3.40
2019-01-09T08:18:28.042Z,3.50
2019-01-09T08:21:05.189Z,3.50
2019-01-09T08:23:32.498Z,3.60
2019-01-09T08:26:05.573Z,3.50
2019-01-09T08:28:36.086Z,3.60
2019-01-09T08:31:12.336Z,3.60
2019-01-09T08:33:43.662Z,3.60
2019-01-09T08:39:15.166Z,3.50
2019-01-09T08:41:45.749Z,3.50
2019-01-09T08:44:16.968Z,3.50
2019-01-09T08:46:50.400Z,3.50
2019-01-09T08:49:24.037Z,3.50
2019-01-09T08:51:57.288Z,3.50
2019-01-09T08:54:34.011Z,3.50
2019-01-09T08:57:02.025Z,3.60
2019-01-09T08:59:36.803Z,3.60
2019-01-09T09:02:07.010Z,3.60
2019-01-09T09:04:38.461Z,3.60
2019-01-09T09:07:09.806Z,3.70
2019-01-09T09:09:40.038Z,3.60
2019-01-09T09:12:10.250Z,3.70
2019-01-09T09:14:45.838Z,3.70
2019-01-09T09:17:17.895Z,3.60
2019-01-09T09:19:48.081Z,3.50
2019-01-09T09:22:21.273Z,3.50
2019-01-09T09:24:54.146Z,3.50
2019-01-09T09:27:27.162Z,3.40
2019-01-09T09:30:02.237Z,3.50
2019-01-09T09:32:32.807Z,3.40
2019-01-09T09:35:07.682Z,3.40
2019-01-09T09:37:49.800Z,3.40
2019-01-09T09:40:23.744Z,3.50
2019-01-09T09:42:54.023Z,3.60
2019-01-09T09:45:24.596Z,3.60
2019-01-09T09:47:54.878Z,3.60
2019-01-09T09:50:26.286Z,3.70
2019-01-09T09:52:59.325Z,3.70
2019-01-09T09:55:29.922Z,3.70
2019-01-09T09:58:05.564Z,3.70
2019-01-09T10:00:49.536Z,3.60
2019-01-09T10:03:26.673Z,3.50
2019-01-09T10:06:03.279Z,3.50
2019-01-09T10:08:34.389Z,3.50
2019-01-09T10:11:07.696Z,3.60
2019-01-09T10:13:42.247Z,3.70
2019-01-09T10:16:12.383Z,3.70
2019-01-09T10:18:45.890Z,3.80
2019-01-09T10:21:21.551Z,3.80
2019-01-09T10:23:51.900Z,3.80
2019-01-09T10:26:22.445Z,3.80
2019-01-09T10:28:54.324Z,3.80
2019-01-09T10:31:26.977Z,3.80
2019-01-09T10:33:59.659Z,3.70
2019-01-09T10:36:29.764Z,3.60
2019-01-09T10:39:00.665Z,3.60
2019-01-09T10:41:30.783Z,3.60
2019-01-09T10:44:04.786Z,3.50
2019-01-09T10:46:36.441Z,3.60
2019-01-09T10:49:06.401Z,3.70
2019-01-09T10:51:42.147Z,3.80
2019-01-09T10:54:46.701Z,3.80
2019-01-09T10:57:19.221Z,3.90
2019-01-09T10:59:52.098Z,3.90
2019-01-09T11:02:24.626Z,3.80
2019-01-09T11:04:55.107Z,3.80
2019-01-09T11:07:25.369Z,3.80
2019-01-09T11:10:05.101Z,3.80
2019-01-09T11:12:42.126Z,3.80
2019-01-09T11:15:32.189Z,3.80
2019-01-09T11:18:05.646Z,3.60
2019-01-09T11:20:37.623Z,3.70
2019-01-09T11:23:12.709Z,3.50
2019-01-09T11:25:43.198Z,3.50
2019-01-09T11:28:14.537Z,3.50
2019-01-09T11:30:47.820Z,3.60
2019-01-09T11:33:18.113Z,3.70
2019-01-09T11:35:49.305Z,3.70
2019-01-09T11:38:19.825Z,3.80
2019-01-09T11:41:17.901Z,3.80
2019-01-09T11:43:40.818Z,3.80
2019-01-09T11:46:13.200Z,3.80
2019-01-09T11:48:43.966Z,3.70
2019-01-09T11:51:24.620Z,3.30
2019-01-09T11:53:55.028Z,3.10
2019-01-09T11:56:25.629Z,3.10
2019-01-09T11:58:55.828Z,3.20
2019-01-09T12:01:27.540Z,3.30
2019-01-09T12:04:00.379Z,3.40
2019-01-09T12:06:30.862Z,3.50
2019-01-09T12:09:04.608Z,3.60
2019-01-09T12:11:33.473Z,3.70
2019-01-09T12:14:03.780Z,3.70
2019-01-09T12:16:41.300Z,3.60
2019-01-09T12:19:12.142Z,3.60
2019-01-09T12:21:42.917Z,3.60
2019-01-09T12:24:20.141Z,3.70
2019-01-09T12:26:50.039Z,3.70
2019-01-09T12:29:28.134Z,3.60
2019-01-09T12:31:58.296Z,3.70
2019-01-09T12:34:50.943Z,3.70
2019-01-09T12:37:19.074Z,3.70
2019-01-09T12:39:50.064Z,3.70
2019-01-09T12:42:29.355Z,3.80
2019-01-09T12:45:07.855Z,3.80
2019-01-09T12:47:44.637Z,3.80
2019-01-09T12:50:22.413Z,3.80
2019-01-09T12:52:53.010Z,3.70
2019-01-09T12:55:25.905Z,3.70
2019-01-09T12:58:01.863Z,3.70
2019-01-09T13:00:32.621Z,3.80
2019-01-09T13:03:16.039Z,3.80
2019-01-09T13:05:38.705Z,3.80
2019-01-09T13:08:15.764Z,3.70
2019-01-09T13:10:48.148Z,3.70
2019-01-09T13:13:23.592Z,3.70
2019-01-09T13:16:06.869Z,3.70
2019-01-09T13:18:40.264Z,3.70
2019-01-09T13:21:11.245Z,3.70
2019-01-09T13:23:44.323Z,3.70
2019-01-09T13:26:22.063Z,3.70
2019-01-09T13:28:58.206Z,3.70
2019-01-09T13:31:28.789Z,3.70
2019-01-09T13:33:59.241Z,3.70
2019-01-09T13:36:30.931Z,3.60
2019-01-09T13:39:01.016Z,3.40
2019-01-09T13:41:31.245Z,3.10
2019-01-09T13:44:06.410Z,3.00
2019-01-09T13:46:40.328Z,3.00
2019-01-09T13:49:14.357Z,3.00
2019-01-09T13:51:44.878Z,3.10
2019-01-09T13:54:26.631Z,3.20
2019-01-09T13:56:57.155Z,3.30
2019-01-09T13:59:27.240Z,3.40
2019-01-09T14:01:58.030Z,3.40
2019-01-09T14:04:28.138Z,3.50
2019-01-09T14:07:09.622Z,3.50
2019-01-09T14:09:42.685Z,3.60
2019-01-09T14:12:21.805Z,3.60
2019-01-09T14:14:53.254Z,3.50
2019-01-09T14:17:25.005Z,3.60
2019-01-09T14:19:59.022Z,3.50
2019-01-09T14:22:51.361Z,3.50
2019-01-09T14:25:42.241Z,3.50
2019-01-09T14:28:02.723Z,3.60
2019-01-09T14:30:33.012Z,3.50
2019-01-09T14:33:07.535Z,3.60
2019-01-09T14:35:40.650Z,3.60
2019-01-09T14:38:11.125Z,3.60
2019-01-09T14:40:42.257Z,3.60
2019-01-09T14:43:14.154Z,3.50
2019-01-09T14:45:59.731Z,3.50
2019-01-09T14:48:33.266Z,3.40
2019-01-09T14:51:03.784Z,3.40
2019-01-09T14:53:34.460Z,3.40
2019-01-09T14:56:14.464Z,3.50
2019-01-09T14:58:58.459Z,3.50
2019-01-09T15:01:31.153Z,3.50
2019-01-09T15:04:01.802Z,3.50
2019-01-09T15:07:22.696Z,3.50
2019-01-09T15:09:56.698Z,3.50
2019-01-09T15:15:54.983Z,3.50
2019-01-09T15:18:52.765Z,3.50
2019-01-09T15:21:50.224Z,3.60
2019-01-09T15:24:33.464Z,3.50
2019-01-09T15:27:03.951Z,3.50
2019-01-09T15:29:52.206Z,3.50
2019-01-09T15:32:22.803Z,3.50
2019-01-09T15:35:09.298Z,3.50
2019-01-09T15:37:58.742Z,3.50
2019-01-09T15:40:35.063Z,3.50
2019-01-09T15:43:08.554Z,3.40
2019-01-09T15:45:48.965Z,3.50
2019-01-09T15:49:12.874Z,3.40
2019-01-09T15:51:43.014Z,3.40
2019-01-09T15:54:16.626Z,3.40
2019-01-09T15:57:19.152Z,3.40
2019-01-09T16:00:03.743Z,3.40
2019-01-09T16:02:54.403Z,3.40
2019-01-09T16:08:44.924Z,3.40
2019-01-09T16:12:29.918Z,3.40
2019-01-09T16:15:36.320Z,3.40
2019-01-09T16:21:38.566Z,3.30
2019-01-09T16:25:21.143Z,3.40
2019-01-09T16:27:10.051Z,3.40
2019-01-09T16:29:50.960Z,3.40
2019-01-09T16:32:27.950Z,3.40
2019-01-09T16:35:11.763Z,3.40
2019-01-09T16:37:43.333Z,3.40
2019-01-09T16:40:13.821Z,3.40
2019-01-09T16:42:53.116Z,3.40
2019-01-09T16:47:24.097Z,3.40
2019-01-09T16:49:27.868Z,3.40
2019-01-09T23:20:25.201Z,2.10
2019-01-09T23:23:43.737Z,2.10
2019-01-09T23:28:07.554Z,2.00
2019-01-09T23:29:34.696Z,2.00
2019-01-09T23:32:22.690Z,2.00
2019-01-09T23:35:15.143Z,2.00
2019-01-09T23:37:55.392Z,2.00
2019-01-09T23:40:45.944Z,2.00
2019-01-09T23:44:00.322Z,2.00
2019-01-09T23:49:56.618Z,1.90
2019-01-09T23:53:20.166Z,1.90
